sensor_id;sensor_type;location;lat;lon;timestamp;temperature;humidity
34646;DHT22;20857;47.808;12.482;2024-01-25T00:01:45;8.10;99.90
34646;DHT22;20857;47.808;12.482;2024-01-25T00:04:11;8.10;99.90
34646;DHT22;20857;47.808;12.482;2024-01-25T00:06:37;8.10;99.90
34646;DHT22;20857;47.808;12.482;2024-01-25T00:09:02;8.10;99.90
34646;DHT22;20857;47.808;12.482;2024-01-25T00:11:29;8.10;99.90
34646;DHT22;20857;47.808;12.482;2024-01-25T00:13:57;8.00;99.90
34646;DHT22;20857;47.808;12.482;2024-01-25T00:16:23;8.00;99.90
34646;DHT22;20857;47.808;12.482;2024-01-25T00:18:48;7.90;99.90
34646;DHT22;20857;47.808;12.482;2024-01-25T00:21:14;7.90;99.90
34646;DHT22;20857;47.808;12.482;2024-01-25T00:23:39;7.90;99.90
34646;DHT22;20857;47.808;12.482;2024-01-25T00:26:05;7.90;99.90
34646;DHT22;20857;47.808;12.482;2024-01-25T00:28:30;8.00;99.90
34646;DHT22;20857;47.808;12.482;2024-01-25T00:30:56;8.00;99.90
34646;DHT22;20857;47.808;12.482;2024-01-25T00:33:22;7.90;99.90
34646;DHT22;20857;47.808;12.482;2024-01-25T00:35:48;7.90;99.90
34646;DHT22;20857;47.808;12.482;2024-01-25T00:38:13;7.90;99.90
34646;DHT22;20857;47.808;12.482;2024-01-25T00:40:40;7.90;99.90
34646;DHT22;20857;47.808;12.482;2024-01-25T00:43:05;7.80;99.90
34646;DHT22;20857;47.808;12.482;2024-01-25T00:45:31;7.90;99.90
34646;DHT22;20857;47.808;12.482;2024-01-25T00:47:57;8.00;99.90
34646;DHT22;20857;47.808;12.482;2024-01-25T00:50:23;7.90;99.90
34646;DHT22;20857;47.808;12.482;2024-01-25T00:52:51;7.80;99.90
34646;DHT22;20857;47.808;12.482;2024-01-25T00:55:17;7.80;99.90
34646;DHT22;20857;47.808;12.482;2024-01-25T00:57:43;7.90;99.90
34646;DHT22;20857;47.808;12.482;2024-01-25T01:00:10;7.90;99.90
34646;DHT22;20857;47.808;12.482;2024-01-25T01:02:39;7.90;99.90
34646;DHT22;20857;47.808;12.482;2024-01-25T01:05:06;7.90;99.90
34646;DHT22;20857;47.808;12.482;2024-01-25T01:07:32;7.80;99.90
34646;DHT22;20857;47.808;12.482;2024-01-25T01:09:58;7.80;99.90
34646;DHT22;20857;47.808;12.482;2024-01-25T01:12:23;7.80;99.90
34646;DHT22;20857;47.808;12.482;2024-01-25T01:14:49;7.90;99.90
34646;DHT22;20857;47.808;12.482;2024-01-25T01:17:15;7.90;99.90
34646;DHT22;20857;47.808;12.482;2024-01-25T01:19:41;7.90;99.90
34646;DHT22;20857;47.808;12.482;2024-01-25T01:22:06;7.80;99.90
34646;DHT22;20857;47.808;12.482;2024-01-25T01:24:32;7.90;99.90
34646;DHT22;20857;47.808;12.482;2024-01-25T01:26:58;8.00;99.90
34646;DHT22;20857;47.808;12.482;2024-01-25T01:29:24;7.90;99.90
34646;DHT22;20857;47.808;12.482;2024-01-25T01:31:50;8.00;99.90
34646;DHT22;20857;47.808;12.482;2024-01-25T01:34:15;8.00;99.90
34646;DHT22;20857;47.808;12.482;2024-01-25T01:36:43;8.00;99.90
34646;DHT22;20857;47.808;12.482;2024-01-25T01:39:09;7.90;99.90
34646;DHT22;20857;47.808;12.482;2024-01-25T01:41:34;7.80;99.90
34646;DHT22;20857;47.808;12.482;2024-01-25T01:44:00;7.80;99.90
34646;DHT22;20857;47.808;12.482;2024-01-25T01:48:55;7.60;99.90
34646;DHT22;20857;47.808;12.482;2024-01-25T01:51:20;7.60;99.90
34646;DHT22;20857;47.808;12.482;2024-01-25T01:53:46;7.50;99.90
34646;DHT22;20857;47.808;12.482;2024-01-25T01:56:12;7.40;99.90
34646;DHT22;20857;47.808;12.482;2024-01-25T01:58:39;7.40;99.90
34646;DHT22;20857;47.808;12.482;2024-01-25T02:01:05;7.40;99.90
34646;DHT22;20857;47.808;12.482;2024-01-25T02:03:30;7.40;99.90
34646;DHT22;20857;47.808;12.482;2024-01-25T02:05:56;7.30;99.90
34646;DHT22;20857;47.808;12.482;2024-01-25T02:08:28;7.20;99.90
34646;DHT22;20857;47.808;12.482;2024-01-25T02:10:54;7.20;99.90
34646;DHT22;20857;47.808;12.482;2024-01-25T02:13:20;7.20;99.90
34646;DHT22;20857;47.808;12.482;2024-01-25T02:15:46;7.10;99.90
34646;DHT22;20857;47.808;12.482;2024-01-25T02:18:11;7.20;99.90
34646;DHT22;20857;47.808;12.482;2024-01-25T02:20:37;7.30;99.90
34646;DHT22;20857;47.808;12.482;2024-01-25T02:23:02;7.20;99.90
34646;DHT22;20857;47.808;12.482;2024-01-25T02:25:28;7.20;99.90
34646;DHT22;20857;47.808;12.482;2024-01-25T02:27:54;7.20;99.90
34646;DHT22;20857;47.808;12.482;2024-01-25T02:30:19;7.10;99.90
34646;DHT22;20857;47.808;12.482;2024-01-25T02:32:45;7.00;99.90
34646;DHT22;20857;47.808;12.482;2024-01-25T02:35:10;6.90;99.90
34646;DHT22;20857;47.808;12.482;2024-01-25T02:37:36;6.90;99.90
34646;DHT22;20857;47.808;12.482;2024-01-25T02:40:02;6.90;99.90
34646;DHT22;20857;47.808;12.482;2024-01-25T02:42:29;6.90;99.90
34646;DHT22;20857;47.808;12.482;2024-01-25T02:48:16;6.80;99.90
34646;DHT22;20857;47.808;12.482;2024-01-25T02:50:42;6.80;99.90
34646;DHT22;20857;47.808;12.482;2024-01-25T02:53:08;6.90;99.90
34646;DHT22;20857;47.808;12.482;2024-01-25T02:55:33;6.90;99.90
34646;DHT22;20857;47.808;12.482;2024-01-25T02:57:59;6.80;99.90
34646;DHT22;20857;47.808;12.482;2024-01-25T03:00:24;6.80;99.90
34646;DHT22;20857;47.808;12.482;2024-01-25T03:02:50;6.80;99.90
34646;DHT22;20857;47.808;12.482;2024-01-25T03:05:15;6.80;99.90
34646;DHT22;20857;47.808;12.482;2024-01-25T03:07:41;6.90;99.90
34646;DHT22;20857;47.808;12.482;2024-01-25T03:10:07;6.90;99.90
34646;DHT22;20857;47.808;12.482;2024-01-25T03:12:33;6.90;99.90
34646;DHT22;20857;47.808;12.482;2024-01-25T03:14:58;6.90;99.90
34646;DHT22;20857;47.808;12.482;2024-01-25T03:17:24;6.80;99.90
34646;DHT22;20857;47.808;12.482;2024-01-25T03:19:49;6.80;99.90
34646;DHT22;20857;47.808;12.482;2024-01-25T03:22:15;6.80;99.90
34646;DHT22;20857;47.808;12.482;2024-01-25T03:24:40;6.70;99.90
34646;DHT22;20857;47.808;12.482;2024-01-25T03:27:06;6.80;99.90
34646;DHT22;20857;47.808;12.482;2024-01-25T03:29:41;6.70;99.90
34646;DHT22;20857;47.808;12.482;2024-01-25T03:32:10;6.70;99.90
34646;DHT22;20857;47.808;12.482;2024-01-25T03:34:36;6.70;99.90
34646;DHT22;20857;47.808;12.482;2024-01-25T03:37:02;6.70;99.90
34646;DHT22;20857;47.808;12.482;2024-01-25T03:39:27;6.70;99.90
34646;DHT22;20857;47.808;12.482;2024-01-25T03:41:53;6.60;99.90
34646;DHT22;20857;47.808;12.482;2024-01-25T03:44:18;6.60;99.90
34646;DHT22;20857;47.808;12.482;2024-01-25T03:46:44;6.70;99.90
34646;DHT22;20857;47.808;12.482;2024-01-25T03:49:09;6.60;99.90
34646;DHT22;20857;47.808;12.482;2024-01-25T03:51:35;6.70;99.90
34646;DHT22;20857;47.808;12.482;2024-01-25T03:54:01;6.70;99.90
34646;DHT22;20857;47.808;12.482;2024-01-25T03:56:26;6.70;99.90
34646;DHT22;20857;47.808;12.482;2024-01-25T03:58:53;6.60;99.90
34646;DHT22;20857;47.808;12.482;2024-01-25T04:01:18;6.50;99.90
34646;DHT22;20857;47.808;12.482;2024-01-25T04:03:44;6.40;99.90
34646;DHT22;20857;47.808;12.482;2024-01-25T04:06:10;6.40;99.90
34646;DHT22;20857;47.808;12.482;2024-01-25T04:08:35;6.40;99.90
34646;DHT22;20857;47.808;12.482;2024-01-25T04:11:01;6.40;99.90
34646;DHT22;20857;47.808;12.482;2024-01-25T04:13:26;6.30;99.90
34646;DHT22;20857;47.808;12.482;2024-01-25T04:15:52;6.30;99.90
34646;DHT22;20857;47.808;12.482;2024-01-25T04:18:17;6.40;99.90
34646;DHT22;20857;47.808;12.482;2024-01-25T04:20:43;6.30;99.90
34646;DHT22;20857;47.808;12.482;2024-01-25T04:23:09;6.40;99.90
34646;DHT22;20857;47.808;12.482;2024-01-25T04:25:35;6.40;99.90
34646;DHT22;20857;47.808;12.482;2024-01-25T04:28:01;6.50;99.90
34646;DHT22;20857;47.808;12.482;2024-01-25T04:30:27;6.50;99.90
34646;DHT22;20857;47.808;12.482;2024-01-25T04:32:52;6.50;99.90
34646;DHT22;20857;47.808;12.482;2024-01-25T04:35:18;6.50;99.90
34646;DHT22;20857;47.808;12.482;2024-01-25T04:37:44;6.50;99.90
34646;DHT22;20857;47.808;12.482;2024-01-25T04:40:09;6.60;99.90
34646;DHT22;20857;47.808;12.482;2024-01-25T04:42:35;6.60;99.90
34646;DHT22;20857;47.808;12.482;2024-01-25T04:45:01;6.60;99.90
34646;DHT22;20857;47.808;12.482;2024-01-25T04:50:48;6.60;99.90
34646;DHT22;20857;47.808;12.482;2024-01-25T04:53:14;6.50;99.90
34646;DHT22;20857;47.808;12.482;2024-01-25T04:55:39;6.60;99.90
34646;DHT22;20857;47.808;12.482;2024-01-25T04:58:05;6.60;99.90
34646;DHT22;20857;47.808;12.482;2024-01-25T05:00:30;6.60;99.90
34646;DHT22;20857;47.808;12.482;2024-01-25T05:02:56;6.60;99.90
34646;DHT22;20857;47.808;12.482;2024-01-25T05:05:21;6.80;99.90
34646;DHT22;20857;47.808;12.482;2024-01-25T05:07:47;6.70;99.90
34646;DHT22;20857;47.808;12.482;2024-01-25T05:10:13;6.70;99.90
34646;DHT22;20857;47.808;12.482;2024-01-25T05:12:38;6.70;99.90
34646;DHT22;20857;47.808;12.482;2024-01-25T05:15:04;6.80;99.90
34646;DHT22;20857;47.808;12.482;2024-01-25T05:17:30;6.80;99.90
34646;DHT22;20857;47.808;12.482;2024-01-25T05:19:55;6.80;99.90
34646;DHT22;20857;47.808;12.482;2024-01-25T05:22:21;6.70;99.90
34646;DHT22;20857;47.808;12.482;2024-01-25T05:24:47;6.80;99.90
34646;DHT22;20857;47.808;12.482;2024-01-25T05:27:13;6.80;99.90
34646;DHT22;20857;47.808;12.482;2024-01-25T05:29:38;6.80;99.90
34646;DHT22;20857;47.808;12.482;2024-01-25T05:32:04;6.90;99.90
34646;DHT22;20857;47.808;12.482;2024-01-25T05:34:29;6.90;99.90
34646;DHT22;20857;47.808;12.482;2024-01-25T05:36:55;6.90;99.90
34646;DHT22;20857;47.808;12.482;2024-01-25T05:39:20;6.80;99.90
34646;DHT22;20857;47.808;12.482;2024-01-25T05:41:46;6.80;99.90
34646;DHT22;20857;47.808;12.482;2024-01-25T05:44:13;6.80;99.90
34646;DHT22;20857;47.808;12.482;2024-01-25T05:46:38;6.80;99.90
34646;DHT22;20857;47.808;12.482;2024-01-25T05:49:04;6.80;99.90
34646;DHT22;20857;47.808;12.482;2024-01-25T05:51:29;6.80;99.90
34646;DHT22;20857;47.808;12.482;2024-01-25T05:53:55;6.90;99.90
34646;DHT22;20857;47.808;12.482;2024-01-25T05:56:21;6.80;99.90
34646;DHT22;20857;47.808;12.482;2024-01-25T05:58:47;6.80;99.90
34646;DHT22;20857;47.808;12.482;2024-01-25T06:01:12;6.70;99.90
34646;DHT22;20857;47.808;12.482;2024-01-25T06:03:38;6.70;99.90
34646;DHT22;20857;47.808;12.482;2024-01-25T06:06:04;6.70;99.90
34646;DHT22;20857;47.808;12.482;2024-01-25T06:08:29;6.70;99.90
34646;DHT22;20857;47.808;12.482;2024-01-25T06:10:55;6.60;99.90
34646;DHT22;20857;47.808;12.482;2024-01-25T06:13:21;6.60;99.90
34646;DHT22;20857;47.808;12.482;2024-01-25T06:15:46;6.60;99.90
34646;DHT22;20857;47.808;12.482;2024-01-25T06:18:12;6.60;99.90
34646;DHT22;20857;47.808;12.482;2024-01-25T06:20:37;6.60;99.90
34646;DHT22;20857;47.808;12.482;2024-01-25T06:23:04;6.60;99.90
34646;DHT22;20857;47.808;12.482;2024-01-25T06:25:29;6.70;99.90
34646;DHT22;20857;47.808;12.482;2024-01-25T06:27:56;6.70;99.90
34646;DHT22;20857;47.808;12.482;2024-01-25T06:30:22;6.70;99.90
34646;DHT22;20857;47.808;12.482;2024-01-25T06:32:48;6.60;99.90
34646;DHT22;20857;47.808;12.482;2024-01-25T06:35:14;6.60;99.90
34646;DHT22;20857;47.808;12.482;2024-01-25T06:37:40;6.70;99.90
34646;DHT22;20857;47.808;12.482;2024-01-25T06:40:06;6.70;99.90
34646;DHT22;20857;47.808;12.482;2024-01-25T06:42:32;6.70;99.90
34646;DHT22;20857;47.808;12.482;2024-01-25T06:44:57;6.50;99.90
34646;DHT22;20857;47.808;12.482;2024-01-25T06:47:23;6.50;99.90
34646;DHT22;20857;47.808;12.482;2024-01-25T06:49:48;6.60;99.90
34646;DHT22;20857;47.808;12.482;2024-01-25T06:52:17;6.60;99.90
34646;DHT22;20857;47.808;12.482;2024-01-25T06:54:43;6.60;99.90
34646;DHT22;20857;47.808;12.482;2024-01-25T06:57:08;6.60;99.90
34646;DHT22;20857;47.808;12.482;2024-01-25T06:59:34;6.50;99.90
34646;DHT22;20857;47.808;12.482;2024-01-25T07:02:00;6.60;99.90
34646;DHT22;20857;47.808;12.482;2024-01-25T07:04:28;6.60;99.90
34646;DHT22;20857;47.808;12.482;2024-01-25T07:06:54;6.70;99.90
34646;DHT22;20857;47.808;12.482;2024-01-25T07:09:20;6.50;99.90
34646;DHT22;20857;47.808;12.482;2024-01-25T07:11:45;6.50;99.90
34646;DHT22;20857;47.808;12.482;2024-01-25T07:14:11;6.50;99.90
34646;DHT22;20857;47.808;12.482;2024-01-25T07:16:37;6.50;99.90
34646;DHT22;20857;47.808;12.482;2024-01-25T07:19:03;6.50;99.90
34646;DHT22;20857;47.808;12.482;2024-01-25T07:21:29;6.50;99.90
34646;DHT22;20857;47.808;12.482;2024-01-25T07:24:01;6.80;99.90
34646;DHT22;20857;47.808;12.482;2024-01-25T07:26:27;6.50;99.90
34646;DHT22;20857;47.808;12.482;2024-01-25T07:28:53;6.40;99.90
34646;DHT22;20857;47.808;12.482;2024-01-25T07:31:26;6.30;99.90
34646;DHT22;20857;47.808;12.482;2024-01-25T07:33:52;6.40;99.90
34646;DHT22;20857;47.808;12.482;2024-01-25T07:36:18;6.30;99.90
34646;DHT22;20857;47.808;12.482;2024-01-25T07:38:44;6.30;99.90
34646;DHT22;20857;47.808;12.482;2024-01-25T07:41:15;6.40;99.90
34646;DHT22;20857;47.808;12.482;2024-01-25T07:43:41;6.40;99.90
34646;DHT22;20857;47.808;12.482;2024-01-25T07:46:07;6.40;99.90
34646;DHT22;20857;47.808;12.482;2024-01-25T07:48:33;6.40;99.90
34646;DHT22;20857;47.808;12.482;2024-01-25T07:50:58;6.40;99.90
34646;DHT22;20857;47.808;12.482;2024-01-25T07:53:24;6.50;99.90
34646;DHT22;20857;47.808;12.482;2024-01-25T07:55:50;6.50;99.90
34646;DHT22;20857;47.808;12.482;2024-01-25T07:58:15;6.50;99.90
34646;DHT22;20857;47.808;12.482;2024-01-25T08:00:41;6.50;99.90
34646;DHT22;20857;47.808;12.482;2024-01-25T08:03:08;6.50;99.90
34646;DHT22;20857;47.808;12.482;2024-01-25T08:05:33;6.50;99.90
34646;DHT22;20857;47.808;12.482;2024-01-25T08:07:59;6.50;99.90
34646;DHT22;20857;47.808;12.482;2024-01-25T08:10:25;6.50;99.90
34646;DHT22;20857;47.808;12.482;2024-01-25T08:12:50;6.50;99.90
34646;DHT22;20857;47.808;12.482;2024-01-25T08:15:16;6.40;99.90
34646;DHT22;20857;47.808;12.482;2024-01-25T08:17:42;6.50;99.90
34646;DHT22;20857;47.808;12.482;2024-01-25T08:20:09;6.50;99.90
34646;DHT22;20857;47.808;12.482;2024-01-25T08:22:36;6.60;99.90
34646;DHT22;20857;47.808;12.482;2024-01-25T08:25:01;6.70;99.90
34646;DHT22;20857;47.808;12.482;2024-01-25T08:27:27;6.80;99.90
34646;DHT22;20857;47.808;12.482;2024-01-25T08:29:53;6.90;99.90
34646;DHT22;20857;47.808;12.482;2024-01-25T08:32:18;7.00;99.90
34646;DHT22;20857;47.808;12.482;2024-01-25T08:34:44;7.00;99.90
34646;DHT22;20857;47.808;12.482;2024-01-25T08:37:09;7.10;99.90
34646;DHT22;20857;47.808;12.482;2024-01-25T08:39:35;7.10;99.90
34646;DHT22;20857;47.808;12.482;2024-01-25T08:42:01;7.20;99.90
34646;DHT22;20857;47.808;12.482;2024-01-25T08:44:28;7.20;99.90
34646;DHT22;20857;47.808;12.482;2024-01-25T08:46:54;7.00;99.90
34646;DHT22;20857;47.808;12.482;2024-01-25T08:49:20;6.90;99.90
34646;DHT22;20857;47.808;12.482;2024-01-25T08:51:45;6.80;99.90
34646;DHT22;20857;47.808;12.482;2024-01-25T08:54:11;6.80;99.90
34646;DHT22;20857;47.808;12.482;2024-01-25T08:56:36;6.80;99.90
34646;DHT22;20857;47.808;12.482;2024-01-25T08:59:02;6.90;99.90
34646;DHT22;20857;47.808;12.482;2024-01-25T09:01:28;6.90;99.90
34646;DHT22;20857;47.808;12.482;2024-01-25T09:03:53;7.00;99.90
34646;DHT22;20857;47.808;12.482;2024-01-25T09:06:19;7.00;99.90
34646;DHT22;20857;47.808;12.482;2024-01-25T09:08:44;7.10;99.90
34646;DHT22;20857;47.808;12.482;2024-01-25T09:11:10;7.20;99.90
34646;DHT22;20857;47.808;12.482;2024-01-25T09:13:36;7.30;99.90
34646;DHT22;20857;47.808;12.482;2024-01-25T09:16:01;7.30;99.90
34646;DHT22;20857;47.808;12.482;2024-01-25T09:18:27;7.40;99.90
34646;DHT22;20857;47.808;12.482;2024-01-25T09:20:53;7.30;99.90
34646;DHT22;20857;47.808;12.482;2024-01-25T09:23:18;7.20;99.90
34646;DHT22;20857;47.808;12.482;2024-01-25T09:25:45;7.20;99.90
34646;DHT22;20857;47.808;12.482;2024-01-25T09:28:10;7.40;99.90
34646;DHT22;20857;47.808;12.482;2024-01-25T09:30:40;7.50;99.90
34646;DHT22;20857;47.808;12.482;2024-01-25T09:33:06;7.60;99.90
34646;DHT22;20857;47.808;12.482;2024-01-25T09:35:32;7.60;99.90
34646;DHT22;20857;47.808;12.482;2024-01-25T09:37:57;7.50;99.90
34646;DHT22;20857;47.808;12.482;2024-01-25T09:40:23;7.50;99.90
34646;DHT22;20857;47.808;12.482;2024-01-25T09:42:49;7.50;99.90
34646;DHT22;20857;47.808;12.482;2024-01-25T09:45:17;7.60;99.90
34646;DHT22;20857;47.808;12.482;2024-01-25T09:47:47;7.50;99.90
34646;DHT22;20857;47.808;12.482;2024-01-25T09:50:13;7.50;99.90
34646;DHT22;20857;47.808;12.482;2024-01-25T09:52:43;7.50;99.90
34646;DHT22;20857;47.808;12.482;2024-01-25T09:55:12;7.50;99.90
34646;DHT22;20857;47.808;12.482;2024-01-25T09:57:46;7.60;99.90
34646;DHT22;20857;47.808;12.482;2024-01-25T10:00:13;7.60;99.90
34646;DHT22;20857;47.808;12.482;2024-01-25T10:02:39;7.60;99.90
34646;DHT22;20857;47.808;12.482;2024-01-25T10:05:08;7.70;99.90
34646;DHT22;20857;47.808;12.482;2024-01-25T10:07:41;7.80;99.90
34646;DHT22;20857;47.808;12.482;2024-01-25T10:10:08;7.90;99.90
34646;DHT22;20857;47.808;12.482;2024-01-25T10:12:34;8.10;99.90
34646;DHT22;20857;47.808;12.482;2024-01-25T10:15:00;8.10;99.90
34646;DHT22;20857;47.808;12.482;2024-01-25T10:17:27;8.10;99.90
34646;DHT22;20857;47.808;12.482;2024-01-25T10:19:53;8.20;99.90
34646;DHT22;20857;47.808;12.482;2024-01-25T10:22:19;8.20;99.90
34646;DHT22;20857;47.808;12.482;2024-01-25T10:24:44;8.30;99.90
34646;DHT22;20857;47.808;12.482;2024-01-25T10:27:10;8.30;99.90
34646;DHT22;20857;47.808;12.482;2024-01-25T10:29:36;8.60;99.90
34646;DHT22;20857;47.808;12.482;2024-01-25T10:32:06;8.70;99.90
34646;DHT22;20857;47.808;12.482;2024-01-25T10:34:35;8.70;99.90
34646;DHT22;20857;47.808;12.482;2024-01-25T10:37:03;8.90;99.90
34646;DHT22;20857;47.808;12.482;2024-01-25T10:39:30;8.90;99.90
34646;DHT22;20857;47.808;12.482;2024-01-25T10:41:58;8.80;99.90
34646;DHT22;20857;47.808;12.482;2024-01-25T10:44:24;8.70;99.90
34646;DHT22;20857;47.808;12.482;2024-01-25T10:46:50;8.70;99.90
34646;DHT22;20857;47.808;12.482;2024-01-25T10:49:17;8.60;99.90
34646;DHT22;20857;47.808;12.482;2024-01-25T10:51:44;8.40;99.90
34646;DHT22;20857;47.808;12.482;2024-01-25T10:54:12;8.30;99.90
34646;DHT22;20857;47.808;12.482;2024-01-25T10:56:41;8.40;99.90
34646;DHT22;20857;47.808;12.482;2024-01-25T10:59:07;8.40;99.90
34646;DHT22;20857;47.808;12.482;2024-01-25T11:01:34;8.30;99.90
34646;DHT22;20857;47.808;12.482;2024-01-25T11:04:00;8.30;99.90
34646;DHT22;20857;47.808;12.482;2024-01-25T11:06:27;8.40;99.90
34646;DHT22;20857;47.808;12.482;2024-01-25T11:09:06;8.40;99.90
34646;DHT22;20857;47.808;12.482;2024-01-25T11:11:32;8.40;99.90
34646;DHT22;20857;47.808;12.482;2024-01-25T11:14:01;8.20;99.90
34646;DHT22;20857;47.808;12.482;2024-01-25T11:16:31;8.30;99.90
34646;DHT22;20857;47.808;12.482;2024-01-25T11:18:59;8.30;99.90
34646;DHT22;20857;47.808;12.482;2024-01-25T11:21:44;8.30;99.90
34646;DHT22;20857;47.808;12.482;2024-01-25T11:24:12;8.40;99.90
34646;DHT22;20857;47.808;12.482;2024-01-25T11:26:39;8.60;99.90
34646;DHT22;20857;47.808;12.482;2024-01-25T11:29:05;8.80;99.90
34646;DHT22;20857;47.808;12.482;2024-01-25T11:31:30;8.90;99.90
34646;DHT22;20857;47.808;12.482;2024-01-25T11:33:57;8.80;99.90
34646;DHT22;20857;47.808;12.482;2024-01-25T11:36:25;9.00;99.90
34646;DHT22;20857;47.808;12.482;2024-01-25T11:38:50;9.10;99.90
34646;DHT22;20857;47.808;12.482;2024-01-25T11:41:16;9.40;99.90
34646;DHT22;20857;47.808;12.482;2024-01-25T11:43:42;9.60;99.90
34646;DHT22;20857;47.808;12.482;2024-01-25T11:46:08;9.60;99.90
34646;DHT22;20857;47.808;12.482;2024-01-25T11:48:38;9.80;99.90
34646;DHT22;20857;47.808;12.482;2024-01-25T11:51:03;10.00;99.90
34646;DHT22;20857;47.808;12.482;2024-01-25T11:53:29;10.30;99.90
34646;DHT22;20857;47.808;12.482;2024-01-25T11:55:55;10.20;99.90
34646;DHT22;20857;47.808;12.482;2024-01-25T11:58:22;10.70;99.90
34646;DHT22;20857;47.808;12.482;2024-01-25T12:00:48;10.90;99.90
34646;DHT22;20857;47.808;12.482;2024-01-25T12:03:14;10.80;99.90
34646;DHT22;20857;47.808;12.482;2024-01-25T12:05:40;10.40;99.90
34646;DHT22;20857;47.808;12.482;2024-01-25T12:08:10;10.20;99.90
34646;DHT22;20857;47.808;12.482;2024-01-25T12:10:37;10.10;99.90
34646;DHT22;20857;47.808;12.482;2024-01-25T12:13:03;10.20;99.90
34646;DHT22;20857;47.808;12.482;2024-01-25T12:15:32;10.10;99.90
34646;DHT22;20857;47.808;12.482;2024-01-25T12:17:58;10.10;99.90
34646;DHT22;20857;47.808;12.482;2024-01-25T12:20:24;10.00;99.90
34646;DHT22;20857;47.808;12.482;2024-01-25T12:22:50;10.00;99.90
34646;DHT22;20857;47.808;12.482;2024-01-25T12:25:15;10.10;99.90
34646;DHT22;20857;47.808;12.482;2024-01-25T12:27:41;10.10;99.90
34646;DHT22;20857;47.808;12.482;2024-01-25T12:30:07;10.10;99.90
34646;DHT22;20857;47.808;12.482;2024-01-25T12:32:34;10.20;99.90
34646;DHT22;20857;47.808;12.482;2024-01-25T12:35:00;10.30;99.90
34646;DHT22;20857;47.808;12.482;2024-01-25T12:37:27;10.40;99.90
34646;DHT22;20857;47.808;12.482;2024-01-25T12:39:53;10.30;99.90
34646;DHT22;20857;47.808;12.482;2024-01-25T12:42:20;10.20;99.90
34646;DHT22;20857;47.808;12.482;2024-01-25T12:44:46;10.20;99.90
34646;DHT22;20857;47.808;12.482;2024-01-25T12:47:12;10.20;99.90
34646;DHT22;20857;47.808;12.482;2024-01-25T12:49:42;10.40;99.90
34646;DHT22;20857;47.808;12.482;2024-01-25T12:52:11;10.50;99.90
34646;DHT22;20857;47.808;12.482;2024-01-25T12:54:38;10.70;99.90
34646;DHT22;20857;47.808;12.482;2024-01-25T12:57:04;10.80;99.90
34646;DHT22;20857;47.808;12.482;2024-01-25T12:59:31;10.50;99.90
34646;DHT22;20857;47.808;12.482;2024-01-25T13:01:57;10.40;99.90
34646;DHT22;20857;47.808;12.482;2024-01-25T13:04:23;10.30;99.90
34646;DHT22;20857;47.808;12.482;2024-01-25T13:06:49;10.40;99.90
34646;DHT22;20857;47.808;12.482;2024-01-25T13:09:14;10.50;99.90
34646;DHT22;20857;47.808;12.482;2024-01-25T13:11:41;10.30;99.90
34646;DHT22;20857;47.808;12.482;2024-01-25T13:14:07;10.30;99.90
34646;DHT22;20857;47.808;12.482;2024-01-25T13:16:33;10.30;99.90
34646;DHT22;20857;47.808;12.482;2024-01-25T13:18:59;10.40;99.90
34646;DHT22;20857;47.808;12.482;2024-01-25T13:21:24;10.70;99.90
34646;DHT22;20857;47.808;12.482;2024-01-25T13:23:50;10.80;99.90
34646;DHT22;20857;47.808;12.482;2024-01-25T13:26:16;11.00;99.90
34646;DHT22;20857;47.808;12.482;2024-01-25T13:28:41;10.80;99.90
34646;DHT22;20857;47.808;12.482;2024-01-25T13:31:07;10.90;99.90
34646;DHT22;20857;47.808;12.482;2024-01-25T13:33:33;11.00;99.90
34646;DHT22;20857;47.808;12.482;2024-01-25T13:35:58;10.90;99.90
34646;DHT22;20857;47.808;12.482;2024-01-25T13:38:24;10.80;99.90
34646;DHT22;20857;47.808;12.482;2024-01-25T13:40:50;10.70;99.90
34646;DHT22;20857;47.808;12.482;2024-01-25T13:43:16;10.40;99.90
34646;DHT22;20857;47.808;12.482;2024-01-25T13:45:42;10.30;99.90
34646;DHT22;20857;47.808;12.482;2024-01-25T13:48:07;10.20;99.90
34646;DHT22;20857;47.808;12.482;2024-01-25T13:50:33;10.20;99.90
34646;DHT22;20857;47.808;12.482;2024-01-25T13:52:59;10.20;99.90
34646;DHT22;20857;47.808;12.482;2024-01-25T13:55:24;10.30;99.90
34646;DHT22;20857;47.808;12.482;2024-01-25T13:57:50;10.00;99.90
34646;DHT22;20857;47.808;12.482;2024-01-25T14:00:15;10.00;99.90
34646;DHT22;20857;47.808;12.482;2024-01-25T14:02:44;9.90;99.90
34646;DHT22;20857;47.808;12.482;2024-01-25T14:05:16;9.90;99.90
34646;DHT22;20857;47.808;12.482;2024-01-25T14:07:41;9.90;99.90
34646;DHT22;20857;47.808;12.482;2024-01-25T14:10:08;10.00;99.90
34646;DHT22;20857;47.808;12.482;2024-01-25T14:12:33;10.00;99.90
34646;DHT22;20857;47.808;12.482;2024-01-25T14:14:59;10.00;99.90
34646;DHT22;20857;47.808;12.482;2024-01-25T14:17:27;10.30;99.90
34646;DHT22;20857;47.808;12.482;2024-01-25T14:19:53;10.10;99.90
34646;DHT22;20857;47.808;12.482;2024-01-25T14:22:19;10.40;99.90
34646;DHT22;20857;47.808;12.482;2024-01-25T14:24:45;10.40;99.90
34646;DHT22;20857;47.808;12.482;2024-01-25T14:27:11;10.40;99.90
34646;DHT22;20857;47.808;12.482;2024-01-25T14:29:37;10.30;99.90
34646;DHT22;20857;47.808;12.482;2024-01-25T14:32:02;10.30;99.90
34646;DHT22;20857;47.808;12.482;2024-01-25T14:34:28;10.20;99.90
34646;DHT22;20857;47.808;12.482;2024-01-25T14:36:54;10.20;99.90
34646;DHT22;20857;47.808;12.482;2024-01-25T14:39:20;10.10;99.90
34646;DHT22;20857;47.808;12.482;2024-01-25T14:41:46;10.00;99.90
34646;DHT22;20857;47.808;12.482;2024-01-25T14:44:12;9.90;99.90
34646;DHT22;20857;47.808;12.482;2024-01-25T14:46:37;9.70;99.90
34646;DHT22;20857;47.808;12.482;2024-01-25T14:49:04;9.60;99.90
34646;DHT22;20857;47.808;12.482;2024-01-25T14:51:30;9.60;99.90
34646;DHT22;20857;47.808;12.482;2024-01-25T14:53:56;9.80;99.90
34646;DHT22;20857;47.808;12.482;2024-01-25T14:58:47;9.30;99.90
34646;DHT22;20857;47.808;12.482;2024-01-25T15:01:14;9.20;99.90
34646;DHT22;20857;47.808;12.482;2024-01-25T15:03:43;9.60;99.90
34646;DHT22;20857;47.808;12.482;2024-01-25T15:06:09;9.40;99.90
34646;DHT22;20857;47.808;12.482;2024-01-25T15:08:35;9.00;99.90
34646;DHT22;20857;47.808;12.482;2024-01-25T15:11:00;9.00;99.90
34646;DHT22;20857;47.808;12.482;2024-01-25T15:13:26;8.90;99.90
34646;DHT22;20857;47.808;12.482;2024-01-25T15:15:51;8.80;99.90
34646;DHT22;20857;47.808;12.482;2024-01-25T15:18:17;8.70;99.90
34646;DHT22;20857;47.808;12.482;2024-01-25T15:20:43;8.60;99.90
34646;DHT22;20857;47.808;12.482;2024-01-25T15:23:08;8.60;99.90
34646;DHT22;20857;47.808;12.482;2024-01-25T15:25:34;8.60;99.90
34646;DHT22;20857;47.808;12.482;2024-01-25T15:28:00;8.50;99.90
34646;DHT22;20857;47.808;12.482;2024-01-25T15:30:25;8.40;99.90
34646;DHT22;20857;47.808;12.482;2024-01-25T15:32:51;8.30;99.90